• Join FlightAware (Why Join?)
  • Login
  • US Flag 
02:58AM EST


 

Airport Tracker/Info


-or-


 

Live Flight TrackerFlight Track Log ✈ N450S ✈ 16-Apr-2013 ✈ KBKL - KMMU

Flight Track Log - Related Links

Times and Time Zones

All times are in EDT time to prevent confusion due to time zone crossing. See the N450S flight status page for this flight to view local times or setup timezone preferences in your user account.

Time Position Orientation Groundspeed Altitude Reporting Facility
EDT Latitude Longitude Course Direction KTS MPH feet Rate Location/Type
05:19PM 41.5456 -81.7372 305° West 179 206 2,500  Level Cleveland Center
05:21PM 41.5961 -81.6853 38° Northeast 187 215 4,200 1,380 Climbing Cleveland Center
05:22PM 41.6403 -81.6361 40° Northeast 196 226 5,700 1,500 Climbing Cleveland Center
05:23PM 41.6783 -81.5839 46° Northeast 196 226 7,200 1,440 Climbing Cleveland Center
05:24PM 41.6894 -81.5064 79° East 206 237 8,600 1,560 Climbing Cleveland Center
05:25PM 41.6733 -81.4256 105° East 206 237 10,400 1,740 Climbing Cleveland Center
05:26PM 41.6531 -81.3500 110° East 206 237 12,100 1,560 Climbing Cleveland Center
05:27PM 41.6328 -81.2722 109° East 211 243 13,600 1,500 Climbing Cleveland Center
05:28PM 41.6228 -81.1914 99° East 211 243 15,100 1,440 Climbing Cleveland Center
05:29PM 41.6147 -81.1053 97° East 223 257 16,500 1,380 Climbing Cleveland Center
05:30PM 41.6069 -81.0192 97° East 228 262 17,900 1,260 Climbing Cleveland Center
05:31PM 41.5989 -80.9331 97° East 234 269 19,100 1,140 Climbing Cleveland Center
05:32PM 41.5908 -80.8442 97° East 234 269 20,200 900 Climbing Cleveland Center
05:33PM 41.5825 -80.7636 98° East 234 269 21,000 360 Climbing Cleveland Center
05:34PM 41.5722 -80.6608 98° East 249 287 21,000  Level Cleveland Center
05:35PM 41.5619 -80.5497 97° East 286 329 21,000  Level Cleveland Center
05:36PM 41.5492 -80.4333 98° East 306 352 21,000  Level Cleveland Center
05:37PM 41.5364 -80.3031 97° East 322 371 21,000  Level Cleveland Center
05:38PM 41.5236 -80.1836 98° East 322 371 21,000  Level Cleveland Center
05:39PM 41.5128 -80.0619 97° East 327 376 21,000  Level Cleveland Center
05:40PM 41.4975 -79.9428 100° East 327 376 21,000  Level Cleveland Center
05:41PM 41.4864 -79.8236 97° East 327 376 21,000  Level Cleveland Center
05:42PM 41.4753 -79.7131 98° East 335 386 21,000  Level Cleveland Center
05:43PM 41.4617 -79.5911 98° East 335 386 21,000  Level Cleveland Center
05:44PM 41.4481 -79.4722 99° East 330 380 21,000  Level Cleveland Center
05:45PM 41.4364 -79.3533 97° East 330 380 21,000  Level Cleveland Center
05:46PM 41.4225 -79.2319 99° East 330 380 21,000  Level Cleveland Center
05:47PM 41.4086 -79.1103 99° East 330 380 21,000  Level Cleveland Center
05:48PM 41.3944 -78.9917 99° East 330 380 21,000  Level Cleveland Center
05:49PM 41.3800 -78.8592 98° East 330 380 21,000  Level Cleveland Center
05:50PM 41.3656 -78.7406 99° East 330 380 21,000  Level Cleveland Center
05:51PM 41.3511 -78.6192 99° East 330 380 21,000 -120 Level Cleveland Center
05:52PM 41.3386 -78.4978 98° East 330 380 20,800 -540 Descending Cleveland Center
05:53PM 41.3239 -78.3739 99° East 330 380 20,000 -780 Descending Cleveland Center
05:54PM 41.3067 -78.2444 100° East 341 392 19,300 -480 Descending Cleveland Center
05:55PM 41.2883 -78.1078 100° East 355 409 19,000 -180 Descending New York Center
05:56PM 41.2750 -77.9850 98° East 344 396 19,000  Level New York Center
05:57PM 41.2611 -77.8703 99° East 331 381 19,000  Level New York Center
05:58PM 41.2450 -77.7553 101° East 320 368 19,000  Level New York Center
05:59PM 41.2308 -77.6433 100° East 314 361 19,000 -360 Level New York Center
06:00PM 41.2169 -77.5206 99° East 319 367 18,400 -600 Descending New York Center
06:01PM 41.2008 -77.4003 100° East 324 373 17,800 -600 Descending New York Center
06:02PM 41.1847 -77.2775 100° East 324 373 17,200 -660 Descending New York Center
06:03PM 41.1683 -77.1575 100° East 329 379 16,500 -720 Descending New York Center
06:04PM 41.1517 -77.0400 101° East 329 379 15,800 -780 Descending New York Center
06:05PM 41.1372 -76.9203 99° East 329 379 15,000 -780 Descending New York Center
06:06PM 41.1200 -76.8058 101° East 317 365 14,300 -780 Descending New York Center
06:07PM 41.1053 -76.6886 99° East 317 365 13,500 -780 Descending New York Center
06:08PM 41.0903 -76.5664 99° East 328 377 12,800 -720 Descending New York Center
06:09PM 41.0731 -76.4492 101° East 328 377 12,100 -720 Descending New York Center
06:10PM 41.0594 -76.3408 99° East 328 377 11,400 -720 Descending New York Center
06:11PM 41.0442 -76.2239 100° East 328 377 10,700 -960 Descending New York Center
06:12PM 41.0253 -76.0903 101° East 329 379 9,500 -1,200 Descending New York Center
06:13PM 41.0075 -75.9733 101° East 329 379 8,400 -1,200 Descending New York Center
06:14PM 40.9936 -75.8625 99° East 319 367 7,100 -1,260 Descending New York Center
06:15PM 40.9753 -75.7564 103° East 305 351 6,000 -600 Descending New York Center
06:16PM 40.9625 -75.6594 100° East 280 322 6,000  Level New York Center
06:17PM 40.9492 -75.5761 102° East 262 302 6,000 -300 Level New York Center
06:18PM 40.9344 -75.4789 101° East 262 302 5,400 -540 Descending New York Center
06:19PM 40.9306 -75.3686 93° East 262 302 5,000 -240 Descending New York Center
06:20PM 40.9442 -75.2844 78° East 257 296 5,000  Level New York Center
06:21PM 40.9539 -75.1917 82° East 252 290 5,000  Level New York Center
06:22PM 40.9681 -75.0911 79° East 252 290 5,000  Level New York Center
06:23PM 40.9797 -74.9983 81° East 252 290 5,000  Level New York Center
06:24PM 41.0078 -74.9119 67° East 257 296 5,000 -120 Level New York Center
06:25PM 41.0278 -74.8142 75° East 265 305 4,800 -480 Descending New York Center
06:26PM 41.0369 -74.7294 82° East 259 298 4,100 -600 Descending New York Center
06:27PM 41.0192 -74.6322 104° East 247 284 3,600 -600 Descending New York Center
06:28PM 41.0092 -74.5603 100° East 230 265 3,000 -360 Descending New York Center
06:29PM 40.9992 -74.4825 100° East 204 235 3,000  Level New York Center
06:30PM 40.9906 -74.4217 101° East 189 217 3,000  Level New York Center
06:31PM 40.9761 -74.3522 105° East 184 212 3,000 -240 Level New York Center
06:31PM 40.9667 -74.3167 109° East 187 215 2,700 -720 Descending New York TRACON
06:32PM 40.9167 -74.3000 166° South 186 214 2,000 -360 Descending New York TRACON
06:33PM 40.8833 -74.3333 217° Southwest 140 161 2,000 -300 Level New York TRACON
06:34PM 40.8500 -74.3500 201° Southwest 137 158 1,500 -540 Descending New York TRACON
06:37PM 40.7833 -74.4000 205° Southwest  Level FlightAware Approximate
06:44PM 40.7993 -74.4149 205° Southwest  Level Estimated
06:45PM 40.7993 -74.4149 205° Southwest  Level Estimated